Time;durP1;ratioP1;P1;durP2;ratioP2;P2;SDS_P1;SDS_P2;PMS_P1;PMS_P2;Temp;Humidity;BMP_temperature;BMP_pressure;BME280_temperature;BME280_humidity;BME280_pressure;Samples;Min_cycle;Max_cycle;Signal;HPM_P1;HPM_P2
2022/01/23 00:00:34;;;;;;;29.17;12.68;;;13.70;1689.60;;;;;;5073686;28;20103;-64
2022/01/23 00:03:02;;;;;;;28.75;12.98;;;13.70;1664.00;;;;;;5073587;28;20032;-63
2022/01/23 00:05:38;;;;;;;26.08;12.50;;;13.70;1689.60;;;;;;5073509;28;20456;-65
2022/01/23 00:08:05;;;;;;;28.88;13.27;;;38.40;1715.20;;;;;;5073862;28;20454;-65
2022/01/23 00:10:31;;;;;;;28.13;13.63;;;13.70;1689.60;;;;;;5073875;28;20097;-66
2022/01/23 00:13:14;;;;;;;24.52;12.88;;;13.70;1664.00;;;;;;5073612;28;20025;-67
2022/01/23 00:18:24;;;;;;;27.52;13.73;;;13.70;1689.60;;;;;;5073490;28;20028;-67
2022/01/23 00:20:50;;;;;;;25.90;12.25;;;13.60;1638.40;;;;;;5073230;28;20021;-67
2022/01/23 00:30:29;;;;;;;;;;;;;;;;;;;;;
2022/01/23 00:31:30;;;;;;;35.70;16.05;;;38.40;1715.20;;;;;;5073985;28;20115;-65
2022/01/23 00:33:56;;;;;;;36.17;16.20;;;13.70;1715.20;;;;;;5073293;28;20471;-67
2022/01/23 00:36:24;;;;;;;35.92;15.30;;;13.60;1664.00;;;;;;5073685;28;20055;-66
2022/01/23 00:38:50;;;;;;;31.30;14.25;;;38.40;1664.00;;;;;;5073287;28;20017;-67
2022/01/23 00:41:16;;;;;;;31.35;15.23;;;38.50;1740.80;;;;;;5073466;28;20024;-67
2022/01/23 00:43:44;;;;;;;31.67;14.68;;;38.40;1689.60;;;;;;5073104;28;20462;-67
2022/01/23 00:51:32;;;;;;;22.73;10.55;;;38.60;1740.80;;;;;;5073194;28;20036;-67
2022/01/23 00:53:59;;;;;;;24.48;11.57;;;38.50;1689.60;;;;;;5073329;28;20021;-66
2022/01/23 00:56:24;;;;;;;32.67;12.73;;;38.70;1638.40;;;;;;5073266;28;20115;-66
2022/01/23 00:58:50;;;;;;;24.58;12.98;;;38.90;1689.60;;;;;;5072885;28;20391;-67
2022/01/23 01:01:17;;;;;;;37.63;16.20;;;39.10;1689.60;;;;;;5072815;28;20035;-65
2022/01/23 01:03:43;;;;;;;45.03;17.27;;;39.10;1740.80;;;;;;5072830;28;20523;-65
2022/01/23 01:06:09;;;;;;;43.55;17.23;;;39.10;1792.00;;;;;;5073072;28;20033;-65
2022/01/23 01:08:35;;;;;;;55.17;20.08;;;39.30;1715.20;;;;;;5072990;28;20056;-66
2022/01/23 01:13:51;;;;;;;64.50;23.42;;;64.10;1740.80;;;;;;5072834;28;20378;-64
2022/01/23 01:32:55;;;;;;;54.05;21.52;;;64.40;1843.20;;;;;;5075472;28;20024;-66
2022/01/23 01:35:29;;;;;;;39.35;17.13;;;64.50;1792.00;;;;;;5076209;28;20375;-66
2022/01/23 01:37:55;;;;;;;41.97;17.33;;;64.60;1792.00;;;;;;5076467;28;20028;-63
2022/01/23 01:40:23;;;;;;;50.42;20.38;;;64.50;1766.40;;;;;;5076468;28;20017;-64
2022/01/23 01:42:49;;;;;;;40.15;16.42;;;64.60;1766.40;;;;;;5076069;28;20509;-64
2022/01/23 01:45:21;;;;;;;34.63;16.13;;;64.60;1792.00;;;;;;5076153;28;20040;-64
2022/01/23 01:47:48;;;;;;;21.45;10.35;;;64.50;1792.00;;;;;;5076241;28;20051;-63
2022/01/23 01:50:14;;;;;;;14.68;7.53;;;64.60;1740.80;;;;;;5075968;28;20359;-63
2022/01/23 01:52:41;;;;;;;18.38;9.13;;;64.70;1715.20;;;;;;5075677;28;20036;-63
2022/01/23 01:55:09;;;;;;;18.92;9.15;;;64.90;1689.60;;;;;;5075674;28;20025;-62
2022/01/23 01:57:40;;;;;;;23.55;10.68;;;89.60;1715.20;;;;;;5075861;28;20081;-66
2022/01/23 02:10:39;;;;;;;36.13;15.23;;;89.60;1766.40;;;;;;5075811;28;20031;-60
2022/01/23 02:13:08;;;;;;;24.35;9.65;;;89.60;1715.20;;;;;;5075567;28;20389;-61
2022/01/23 02:16:06;;;;;;;27.73;12.43;;;89.80;1715.20;;;;;;5075732;28;20195;-61
2022/01/23 02:22:27;;;;;;;30.75;12.38;;;89.80;1766.40;;;;;;5075332;28;20082;-60
2022/01/23 02:56:58;;;;;;;;;;;64.40;1715.20;;;;;;5075077;28;20458;-60
2022/01/23 03:04:36;;;;;;;19.35;10.07;;;64.50;1740.80;;;;;;5074832;28;20363;-60
2022/01/23 03:14:56;;;;;;;20.85;8.43;;;64.10;1664.00;;;;;;5072139;28;20031;-60
2022/01/23 03:30:36;;;;;;;20.27;9.90;;;64.20;1715.20;;;;;;5072237;28;20066;-61
2022/01/23 03:33:02;;;;;;;16.30;9.02;;;64.10;1612.80;;;;;;5071882;28;20387;-61
2022/01/23 03:35:28;;;;;;;19.33;8.82;;;64.00;1587.20;;;;;;5071871;28;20078;-60
2022/01/23 03:37:54;;;;;;;20.48;8.82;;;64.20;1612.80;;;;;;5071855;28;20032;-61
2022/01/23 03:40:20;;;;;;;20.52;8.27;;;64.30;1638.40;;;;;;5071933;28;20028;-60
2022/01/23 03:42:48;;;;;;;19.38;8.00;;;64.50;1664.00;;;;;;5071707;28;20506;-60
2022/01/23 03:50:47;;;;;;;22.65;9.07;;;64.60;1715.20;;;;;;5071813;28;20276;-61
2022/01/23 03:53:13;;;;;;;24.60;9.15;;;64.70;1715.20;;;;;;5071673;28;20036;-60
2022/01/23 03:55:39;;;;;;;28.98;9.63;;;64.80;1715.20;;;;;;5070931;28;20128;-61
2022/01/23 03:58:05;;;;;;;27.90;11.73;;;64.70;1740.80;;;;;;5071416;28;20032;-60
2022/01/23 04:00:32;;;;;;;39.00;15.05;;;64.90;1740.80;;;;;;5071294;28;20132;-60
2022/01/23 04:02:58;;;;;;;28.40;14.52;;;64.90;1740.80;;;;;;5071734;28;20120;-59
2022/01/23 04:05:24;;;;;;;26.73;14.23;;;89.60;1740.80;;;;;;5071396;28;20040;-60
2022/01/23 04:07:50;;;;;;;43.75;14.15;;;89.70;1715.20;;;;;;5071424;28;20037;-60
2022/01/23 04:10:18;;;;;;;20.75;9.23;;;89.70;1920.00;;;;;;5071677;28;20054;-60
2022/01/23 04:12:54;;;;;;;19.00;9.25;;;64.80;2022.40;;;;;;5071402;28;20043;-60
2022/01/23 04:33:59;;;;;;;23.38;10.95;;;64.60;1792.00;;;;;;5073514;28;20385;-60
2022/01/23 05:01:05;;;;;;;33.30;14.03;;;64.80;1792.00;;;;;;5073188;28;20067;-60
2022/01/23 05:06:22;;;;;;;22.02;8.98;;;64.80;1715.20;;;;;;5074969;28;20036;-60
2022/01/23 05:08:48;;;;;;;17.73;8.38;;;64.90;1715.20;;;;;;5076842;28;20108;-60
2022/01/23 05:11:14;;;;;;;13.77;7.72;;;89.70;1715.20;;;;;;5076810;28;20056;-60
2022/01/23 05:13:40;;;;;;;17.27;8.15;;;89.80;1740.80;;;;;;5076710;28;20021;-60
2022/01/23 05:16:05;;;;;;;13.40;7.40;;;89.90;1740.80;;;;;;5076568;28;20032;-59
2022/01/23 05:18:34;;;;;;;15.90;8.10;;;90.00;1766.40;;;;;;5076704;28;20020;-59
2022/01/23 05:21:20;;;;;;;14.80;6.78;;;90.10;1792.00;;;;;;5076606;28;20447;-60
2022/01/23 05:23:46;;;;;;;14.32;6.93;;;90.10;1766.40;;;;;;5077071;28;20395;-59
2022/01/23 05:26:12;;;;;;;13.13;7.70;;;90.10;1766.40;;;;;;5076376;28;20043;-59
2022/01/23 05:28:38;;;;;;;19.42;9.00;;;90.00;1766.40;;;;;;5076278;28;20028;-59
2022/01/23 05:31:04;;;;;;;20.73;9.43;;;90.00;1766.40;;;;;;5076476;28;20385;-59
2022/01/23 05:33:29;;;;;;;26.63;11.55;;;90.10;1766.40;;;;;;5076264;28;20078;-58
2022/01/23 05:35:55;;;;;;;42.40;15.85;;;90.10;1740.80;;;;;;5076271;28;20032;-60
2022/01/23 05:38:21;;;;;;;37.28;15.18;;;90.10;1766.40;;;;;;5076242;28;20025;-60
2022/01/23 05:40:55;;;;;;;28.60;11.32;;;90.00;1817.60;;;;;;5076237;28;20024;-60
2022/01/23 05:43:21;;;;;;;24.85;11.70;;;90.00;1766.40;;;;;;5076024;28;20082;-59
2022/01/23 05:45:46;;;;;;;20.97;10.83;;;90.00;1766.40;;;;;;5075911;28;20450;-59
2022/01/23 05:48:12;;;;;;;18.40;8.45;;;90.00;1843.20;;;;;;5076188;28;20033;-60
2022/01/23 05:50:38;;;;;;;14.90;8.33;;;90.00;1766.40;;;;;;5075988;28;20077;-60
2022/01/23 05:53:04;;;;;;;17.33;7.85;;;90.10;1766.40;;;;;;5076133;28;20095;-60
2022/01/23 05:55:30;;;;;;;18.15;8.40;;;90.20;1817.60;;;;;;5075969;28;20458;-60
2022/01/23 05:57:55;;;;;;;19.02;9.40;;;90.20;1817.60;;;;;;5075857;28;20367;-60
2022/01/23 06:00:21;;;;;;;19.13;9.83;;;90.10;1792.00;;;;;;5075573;28;20511;-60
2022/01/23 06:02:47;;;;;;;16.30;9.20;;;90.20;1843.20;;;;;;5076390;28;20017;-59
2022/01/23 06:05:13;;;;;;;16.20;9.47;;;90.00;1792.00;;;;;;5075934;28;20021;-60
2022/01/23 06:07:41;;;;;;;14.67;8.53;;;90.10;1766.40;;;;;;5075567;28;20040;-59
2022/01/23 06:10:08;;;;;;;15.53;7.80;;;90.00;1817.60;;;;;;5075681;28;20033;-60
2022/01/23 06:12:33;;;;;;;15.23;6.90;;;89.80;1817.60;;;;;;5075487;28;20504;-59
2022/01/23 06:14:59;;;;;;;13.93;7.10;;;89.80;1766.40;;;;;;5075600;28;20107;-60
2022/01/23 06:17:25;;;;;;;19.00;8.82;;;89.90;1740.80;;;;;;5074466;28;20032;-60
2022/01/23 06:19:51;;;;;;;19.80;9.57;;;90.00;1792.00;;;;;;5075588;28;20031;-60
2022/01/23 06:22:16;;;;;;;20.13;9.67;;;90.00;1817.60;;;;;;5075538;28;20500;-63
2022/01/23 06:24:47;;;;;;;19.55;9.85;;;89.90;1843.20;;;;;;5075327;28;20025;-60
2022/01/23 06:27:13;;;;;;;20.97;10.13;;;90.00;1792.00;;;;;;5075109;28;20115;-62
2022/01/23 06:29:43;;;;;;;29.50;10.13;;;90.00;1792.00;;;;;;5075369;28;20045;-59
2022/01/23 06:32:09;;;;;;;36.87;13.47;;;89.90;1792.00;;;;;;5075193;28;20025;-60
2022/01/23 06:34:35;;;;;;;40.43;18.00;;;89.60;2124.80;;;;;;5075295;28;20077;-61
2022/01/23 06:37:00;;;;;;;44.93;18.73;;;64.70;1996.80;;;;;;5075198;28;20043;-65
2022/01/23 06:39:27;;;;;;;41.38;17.33;;;64.50;1996.80;;;;;;5075384;28;20032;-60
2022/01/23 06:41:53;;;;;;;31.95;15.02;;;64.50;1920.00;;;;;;5075033;28;20470;-66
2022/01/23 06:44:19;;;;;;;27.30;11.98;;;64.60;1817.60;;;;;;5074808;28;20025;-59
2022/01/23 06:46:45;;;;;;;26.02;11.52;;;64.70;1792.00;;;;;;5075102;28;20068;-62
2022/01/23 06:49:11;;;;;;;19.80;9.27;;;64.50;1766.40;;;;;;5075159;28;20036;-60
2022/01/23 06:51:38;;;;;;;49.78;20.58;;;64.50;1740.80;;;;;;5075186;28;20017;-63
2022/01/23 06:54:03;;;;;;;45.22;18.30;;;64.50;1689.60;;;;;;5074985;28;20029;-61
2022/01/23 06:56:29;;;;;;;40.35;17.45;;;64.50;1715.20;;;;;;5074737;28;20020;-61
2022/01/23 06:58:56;;;;;;;171.13;64.57;;;64.40;1766.40;;;;;;5074434;28;20060;-61
2022/01/23 07:01:22;;;;;;;92.47;34.50;;;64.20;1868.80;;;;;;5074747;28;20025;-61
2022/01/23 07:03:48;;;;;;;53.80;25.70;;;64.30;1817.60;;;;;;5074576;28;20054;-60
2022/01/23 07:06:13;;;;;;;60.90;32.58;;;64.40;1689.60;;;;;;5074598;28;20044;-61
2022/01/23 07:08:39;;;;;;;57.72;26.85;;;64.40;1715.20;;;;;;5074571;28;20458;-61
2022/01/23 07:11:05;;;;;;;56.63;26.95;;;64.50;1740.80;;;;;;5074561;28;20033;-63
2022/01/23 07:13:30;;;;;;;105.28;48.50;;;64.50;1740.80;;;;;;5074037;28;20055;-61
2022/01/23 07:15:56;;;;;;;145.32;73.22;;;64.60;1715.20;;;;;;5074475;28;20116;-60
2022/01/23 07:18:22;;;;;;;113.13;56.45;;;64.70;1740.80;;;;;;5074088;28;20077;-60
2022/01/23 07:20:48;;;;;;;192.45;97.65;;;64.80;1740.80;;;;;;5074173;28;20025;-60
2022/01/23 07:23:20;;;;;;;230.30;114.83;;;64.90;1740.80;;;;;;5074054;28;20077;-60
2022/01/23 07:25:46;;;;;;;145.45;75.65;;;64.90;1740.80;;;;;;5074193;28;20474;-61
2022/01/23 07:28:15;;;;;;;203.40;85.63;;;64.90;1766.40;;;;;;5073792;28;20028;-58
2022/01/23 07:33:10;;;;;;;124.72;52.05;;;64.70;2022.40;;;;;;5074081;28;20105;-60
2022/01/23 07:35:35;;;;;;;96.18;37.28;;;64.60;1996.80;;;;;;5073829;28;20066;-60
2022/01/23 07:38:01;;;;;;;88.65;35.00;;;64.60;1868.80;;;;;;5074066;28;20021;-62
2022/01/23 07:40:27;;;;;;;320.17;116.65;;;64.60;1817.60;;;;;;5074255;28;20048;-60
2022/01/23 07:42:53;;;;;;;331.58;121.47;;;64.70;1868.80;;;;;;5073888;28;20029;-60
2022/01/23 07:45:18;;;;;;;613.10;249.95;;;64.60;1843.20;;;;;;5073987;28;20040;-60
2022/01/23 07:47:44;;;;;;;661.40;278.15;;;64.50;1766.40;;;;;;5073779;28;20044;-60
2022/01/23 07:50:10;;;;;;;556.08;235.93;;;64.60;1766.40;;;;;;5074021;28;20385;-60
2022/01/23 07:52:38;;;;;;;629.00;258.27;;;64.50;1740.80;;;;;;5073946;28;20112;-67
2022/01/23 07:55:06;;;;;;;497.85;187.27;;;64.50;1817.60;;;;;;5073641;28;20052;-58
2022/01/23 07:57:32;;;;;;;509.80;207.65;;;64.40;1740.80;;;;;;5073710;28;20067;-58
2022/01/23 07:59:59;;;;;;;306.23;119.28;;;64.50;1868.80;;;;;;5073446;28;20040;-59
2022/01/23 08:02:25;;;;;;;153.93;62.20;;;64.60;1792.00;;;;;;5074132;28;20033;-59
2022/01/23 08:04:50;;;;;;;99.22;49.58;;;64.60;1920.00;;;;;;5073185;28;20025;-60
2022/01/23 08:07:49;;;;;;;64.53;33.70;;;64.50;1792.00;;;;;;5073360;28;20040;-59
2022/01/23 08:10:09;;;;;;;62.05;28.38;;;64.40;1766.40;;;;;;5073293;28;20039;-60
2022/01/23 08:12:35;;;;;;;62.10;27.17;;;64.40;1766.40;;;;;;5073386;28;20028;-59
2022/01/23 08:15:03;;;;;;;58.05;26.65;;;64.30;1766.40;;;;;;5073369;28;20024;-59
2022/01/23 08:17:29;;;;;;;95.47;43.47;;;64.20;1766.40;;;;;;5073027;28;20032;-59
2022/01/23 08:19:57;;;;;;;116.25;48.47;;;64.20;1766.40;;;;;;5072729;28;20381;-60
2022/01/23 08:22:25;;;;;;;87.13;37.97;;;64.20;1740.80;;;;;;5073491;28;20027;-60
2022/01/23 08:24:52;;;;;;;126.78;51.08;;;64.10;1792.00;;;;;;5073147;28;20028;-59
2022/01/23 08:27:18;;;;;;;358.70;142.65;;;64.00;1792.00;;;;;;5073404;28;20115;-60
2022/01/23 08:29:44;;;;;;;391.45;161.98;;;39.30;1766.40;;;;;;5073397;28;20458;-59
2022/01/23 08:32:10;;;;;;;179.27;77.47;;;64.00;1740.80;;;;;;5073271;28;20046;-60
2022/01/23 08:34:37;;;;;;;142.10;64.22;;;39.20;1766.40;;;;;;5073417;28;20031;-59
2022/01/23 08:37:04;;;;;;;115.57;46.90;;;39.20;1740.80;;;;;;5072670;28;20086;-60
2022/01/23 08:39:34;;;;;;;87.68;39.05;;;39.20;1792.00;;;;;;5073136;28;20020;-61
2022/01/23 08:41:59;;;;;;;66.65;29.92;;;39.00;1894.40;;;;;;5076742;28;20172;-60
2022/01/23 08:44:27;;;;;;;70.75;29.85;;;39.00;1817.60;;;;;;5077182;28;20363;-59
2022/01/23 08:46:53;;;;;;;74.57;28.25;;;39.10;1792.00;;;;;;5077269;28;20064;-58
2022/01/23 08:49:21;;;;;;;45.72;21.17;;;39.20;1792.00;;;;;;5077364;28;20021;-59
2022/01/23 08:51:49;;;;;;;51.30;22.55;;;39.20;1817.60;;;;;;5077586;28;20033;-60
2022/01/23 08:54:15;;;;;;;49.75;22.20;;;39.10;1868.80;;;;;;5077158;28;20382;-60
2022/01/23 08:56:41;;;;;;;56.35;24.02;;;39.00;1996.80;;;;;;5076574;28;20032;-58
2022/01/23 08:59:07;;;;;;;60.33;26.05;;;38.80;2022.40;;;;;;5076666;28;20045;-58
2022/01/23 09:01:34;;;;;;;64.35;24.23;;;38.70;1894.40;;;;;;5077007;28;20033;-60
2022/01/23 09:04:01;;;;;;;50.05;21.40;;;38.70;1868.80;;;;;;5076827;28;20035;-60
2022/01/23 09:06:26;;;;;;;58.88;24.55;;;38.60;1843.20;;;;;;5077068;28;20047;-58
2022/01/23 09:08:54;;;;;;;89.13;37.88;;;38.60;1843.20;;;;;;5077357;28;20025;-59
2022/01/23 09:16:16;;;;;;;68.38;27.38;;;13.60;1817.60;;;;;;5076556;28;20028;-58
2022/01/23 09:18:42;;;;;;;63.10;27.67;;;13.60;1843.20;;;;;;5076691;28;20021;-60
2022/01/23 09:21:08;;;;;;;67.85;27.25;;;13.50;1843.20;;;;;;5076230;28;20527;-60
2022/01/23 09:23:35;;;;;;;72.72;29.60;;;13.40;1817.60;;;;;;5076523;28;20111;-60
2022/01/23 09:26:09;;;;;;;60.17;26.20;;;13.40;1817.60;;;;;;5076234;28;20398;-60
2022/01/23 09:28:38;;;;;;;57.63;24.70;;;13.30;1843.20;;;;;;5076225;28;20482;-58
2022/01/23 09:31:04;;;;;;;50.55;22.75;;;13.20;1843.20;;;;;;5076525;28;20040;-58
2022/01/23 09:33:30;;;;;;;41.05;17.52;;;13.10;1817.60;;;;;;5076421;28;20027;-60
2022/01/23 09:35:56;;;;;;;48.17;21.45;;;13.10;1817.60;;;;;;5076571;28;20088;-58
2022/01/23 09:38:22;;;;;;;46.97;21.27;;;12.90;1817.60;;;;;;5076287;28;20024;-60
2022/01/23 09:40:53;;;;;;;52.72;23.63;;;12.90;1792.00;;;;;;5076390;28;20106;-58
2022/01/23 09:43:20;;;;;;;52.72;24.27;;;0.00;1817.60;;;;;;5076240;28;20020;-59
2022/01/23 09:45:49;;;;;;;55.72;24.00;;;0.00;1817.60;;;;;;5076270;28;20021;-60
2022/01/23 09:48:17;;;;;;;70.93;29.98;;;0.20;1766.40;;;;;;5076157;28;20505;-58
2022/01/23 09:50:46;;;;;;;69.10;30.58;;;0.20;1792.00;;;;;;5076320;28;20044;-58
2022/01/23 09:53:13;;;;;;;57.95;25.77;;;0.20;1792.00;;;;;;5075307;28;20471;-60
2022/01/23 09:55:40;;;;;;;48.35;23.52;;;0.40;1792.00;;;;;;5075784;28;20032;-60
2022/01/23 09:58:07;;;;;;;51.35;22.75;;;0.40;1766.40;;;;;;5075953;28;20381;-60
2022/01/23 10:00:34;;;;;;;61.20;24.27;;;0.40;1792.00;;;;;;5075564;28;20443;-59
2022/01/23 10:03:00;;;;;;;51.63;22.58;;;0.50;1792.00;;;;;;5075861;28;20096;-58
2022/01/23 10:05:26;;;;;;;59.92;25.77;;;0.60;1766.40;;;;;;5075866;28;20031;-60
2022/01/23 10:07:53;;;;;;;48.88;21.88;;;0.60;1766.40;;;;;;5075763;28;20049;-61
2022/01/23 10:10:21;;;;;;;49.05;22.23;;;0.70;1792.00;;;;;;5075624;28;20056;-59
2022/01/23 10:12:55;;;;;;;46.22;20.48;;;0.80;1766.40;;;;;;5075877;28;20025;-58
2022/01/23 10:15:25;;;;;;;29.23;15.82;;;0.90;1766.40;;;;;;5074330;28;20025;-60
2022/01/23 10:17:52;;;;;;;30.77;15.60;;;25.60;1740.80;;;;;;5075649;28;20025;-58
2022/01/23 10:20:18;;;;;;;31.33;15.68;;;25.60;1740.80;;;;;;5075652;28;20032;-58
2022/01/23 10:22:48;;;;;;;30.90;15.93;;;25.60;1715.20;;;;;;5075872;28;20397;-58
2022/01/23 10:25:17;;;;;;;36.42;16.77;;;25.60;1740.80;;;;;;5075251;28;20036;-59
2022/01/23 10:27:51;;;;;;;32.10;16.02;;;25.70;1766.40;;;;;;5075382;28;20039;-58
2022/01/23 10:30:24;;;;;;;42.70;18.83;;;25.80;1715.20;;;;;;5075456;28;20070;-58
2022/01/23 10:33:10;;;;;;;46.13;20.77;;;25.80;1766.40;;;;;;5075268;28;20025;-58
2022/01/23 10:35:54;;;;;;;39.20;19.90;;;25.90;1792.00;;;;;;5075190;28;20103;-59
2022/01/23 10:38:22;;;;;;;42.47;19.48;;;25.90;1740.80;;;;;;5075331;28;20103;-60
2022/01/23 10:41:01;;;;;;;43.88;21.15;;;26.00;1715.20;;;;;;5073829;28;20025;-58
2022/01/23 10:48:58;;;;;;;29.58;14.18;;;26.10;1715.20;;;;;;5075241;28;20109;-60
2022/01/23 10:51:31;;;;;;;29.15;13.38;;;26.20;1740.80;;;;;;5074488;28;20136;-60
2022/01/23 10:54:11;;;;;;;30.63;15.23;;;26.20;1689.60;;;;;;5074865;28;20032;-59
2022/01/23 10:57:02;;;;;;;44.88;20.58;;;26.30;1689.60;;;;;;5074886;28;20056;-60
2022/01/23 10:59:42;;;;;;;34.30;15.95;;;26.30;1740.80;;;;;;5074517;28;20048;-60
2022/01/23 11:02:11;;;;;;;36.35;16.75;;;26.40;1689.60;;;;;;5074732;28;20047;-58
2022/01/23 11:04:54;;;;;;;35.03;16.63;;;26.50;1689.60;;;;;;5074250;28;20487;-60
2022/01/23 11:07:21;;;;;;;30.23;14.27;;;26.50;1689.60;;;;;;5074168;28;20040;-59
2022/01/23 11:09:59;;;;;;;21.85;11.75;;;26.50;1664.00;;;;;;5074495;28;20077;-58
2022/01/23 11:18:05;;;;;;;45.08;17.20;;;26.50;1689.60;;;;;;5074391;28;20078;-60
2022/01/23 11:20:40;;;;;;;42.35;16.52;;;51.20;1715.20;;;;;;5074362;28;20016;-58
2022/01/23 11:23:27;;;;;;;68.50;27.00;;;51.30;1715.20;;;;;;5074642;28;20085;-58
2022/01/23 11:25:55;;;;;;;42.08;19.30;;;51.30;1715.20;;;;;;5073979;28;20033;-58
2022/01/23 11:28:46;;;;;;;42.13;18.95;;;51.30;1715.20;;;;;;5074003;28;20096;-58
2022/01/23 11:31:17;;;;;;;39.63;19.77;;;51.40;1740.80;;;;;;5074304;28;20366;-58
2022/01/23 11:33:44;;;;;;;54.47;25.17;;;51.40;1715.20;;;;;;5074182;28;20052;-59
2022/01/23 11:36:10;;;;;;;44.78;20.80;;;51.40;1715.20;;;;;;5074074;28;20478;-60
2022/01/23 11:38:37;;;;;;;44.03;20.60;;;51.50;1740.80;;;;;;5073564;28;20031;-60
2022/01/23 11:55:32;;;;;;;40.75;17.00;;;51.60;1740.80;;;;;;5072286;28;20416;-60
2022/01/23 11:57:59;;;;;;;45.65;18.25;;;51.70;1715.20;;;;;;5071545;28;20098;-60
2022/01/23 12:00:33;;;;;;;46.40;19.80;;;51.70;1715.20;;;;;;5071556;28;20056;-58
2022/01/23 12:03:13;;;;;;;38.90;18.58;;;51.80;1715.20;;;;;;5054892;28;20143;-60
2022/01/23 12:05:46;;;;;;;33.58;16.88;;;51.90;1715.20;;;;;;5071540;28;20461;-58
2022/01/23 12:08:35;;;;;;;34.00;15.88;;;51.70;1715.20;;;;;;5071389;28;20051;-60
2022/01/23 12:11:24;;;;;;;31.52;16.17;;;51.90;1715.20;;;;;;5071439;28;20087;-60
2022/01/23 12:16:58;;;;;;;27.98;14.02;;;51.90;1715.20;;;;;;5011349;28;20026;-60
2022/01/23 12:19:31;;;;;;;25.88;12.43;;;51.90;1715.20;;;;;;5011796;28;20228;-60
2022/01/23 12:21:59;;;;;;;22.52;12.30;;;51.90;1689.60;;;;;;5011716;28;20550;-60
2022/01/23 12:24:26;;;;;;;24.50;12.45;;;52.00;1689.60;;;;;;5011997;28;20030;-60
2022/01/23 12:27:17;;;;;;;26.02;12.98;;;52.00;1715.20;;;;;;5011491;28;20077;-58
2022/01/23 12:29:43;;;;;;;24.27;10.88;;;52.10;1689.60;;;;;;5011625;28;20057;-59
2022/01/23 12:32:26;;;;;;;20.88;11.27;;;52.00;1689.60;;;;;;5011336;28;20050;-60
2022/01/23 12:34:56;;;;;;;30.95;14.18;;;52.10;1689.60;;;;;;5011796;28;20396;-58
2022/01/23 12:37:23;;;;;;;25.63;13.07;;;52.10;1689.60;;;;;;5011455;28;20042;-59
2022/01/23 12:40:23;;;;;;;29.58;12.43;;;52.10;1689.60;;;;;;5011454;28;20030;-61
2022/01/23 12:43:21;;;;;;;27.55;13.40;;;52.10;1689.60;;;;;;5011494;28;20033;-60
2022/01/23 12:45:49;;;;;;;28.15;13.00;;;52.10;1715.20;;;;;;4952977;29;20081;-58
2022/01/23 12:48:31;;;;;;;31.50;14.20;;;52.10;1715.20;;;;;;4953073;29;20173;-60
2022/01/23 12:51:04;;;;;;;28.08;12.82;;;52.00;1715.20;;;;;;4953164;29;20548;-60
2022/01/23 12:53:47;;;;;;;33.50;13.85;;;52.10;1740.80;;;;;;4978514;28;20173;-59
2022/01/23 12:56:13;;;;;;;26.83;12.23;;;76.80;1715.20;;;;;;4991985;28;20069;-59
2022/01/23 12:58:41;;;;;;;26.17;12.10;;;76.80;1689.60;;;;;;4991618;28;20039;-59
2022/01/23 13:01:19;;;;;;;35.85;16.50;;;76.90;1715.20;;;;;;4991741;28;20113;-60
2022/01/23 13:04:03;;;;;;;43.70;18.65;;;76.90;1715.20;;;;;;4991865;28;20034;-58
2022/01/23 13:06:28;;;;;;;33.15;16.98;;;76.80;1715.20;;;;;;4991746;28;20046;-59
2022/01/23 13:12:17;;;;;;;38.40;17.80;;;76.80;1715.20;;;;;;4991771;28;20033;-61
2022/01/23 13:18:04;;;;;;;45.30;17.95;;;76.80;1689.60;;;;;;4991710;28;20050;-58
2022/01/23 13:32:19;;;;;;;69.07;27.80;;;76.90;1638.40;;;;;;5061566;28;20031;-60
2022/01/23 13:34:59;;;;;;;255.63;108.60;;;76.90;1664.00;;;;;;5063934;28;20591;-59
2022/01/23 13:37:28;;;;;;;269.23;113.22;;;77.00;1638.40;;;;;;5069496;28;20024;-60
2022/01/23 13:40:01;;;;;;;319.17;131.82;;;76.90;1638.40;;;;;;5065687;28;20032;-59
2022/01/23 13:53:35;;;;;;;96.13;47.17;;;76.90;1664.00;;;;;;5064661;28;20103;-61
2022/01/23 13:59:07;;;;;;;163.05;91.07;;;76.80;1638.40;;;;;;5051565;28;20048;-60
2022/01/23 14:01:48;;;;;;;116.70;66.40;;;76.90;1664.00;;;;;;5049183;28;20017;-57
2022/01/23 14:04:16;;;;;;;63.38;38.13;;;76.90;1664.00;;;;;;5051868;28;20394;-57
2022/01/23 14:06:42;;;;;;;57.95;36.83;;;76.90;1638.40;;;;;;5053050;28;20057;-59
2022/01/23 14:09:12;;;;;;;52.30;34.78;;;76.90;1664.00;;;;;;5053065;28;20033;-58
2022/01/23 14:11:38;;;;;;;48.65;29.35;;;76.90;1664.00;;;;;;5053080;28;20432;-58
2022/01/23 14:14:13;;;;;;;104.60;43.35;;;76.90;1664.00;;;;;;5050253;28;20017;-59
2022/01/23 14:16:38;;;;;;;57.35;27.90;;;76.80;1689.60;;;;;;5052957;28;20120;-58
2022/01/23 14:19:25;;;;;;;57.00;27.17;;;77.00;1689.60;;;;;;5053084;28;20107;-58
2022/01/23 14:22:01;;;;;;;48.42;24.65;;;76.90;1638.40;;;;;;5051056;28;20021;-59
2022/01/23 14:24:33;;;;;;;41.63;22.73;;;76.90;1638.40;;;;;;5047913;28;20028;-60
2022/01/23 14:26:59;;;;;;;45.47;24.55;;;76.90;1664.00;;;;;;5052783;28;20127;-59
2022/01/23 14:29:25;;;;;;;51.15;25.73;;;76.90;1664.00;;;;;;5052776;28;20491;-57
2022/01/23 14:32:33;;;;;;;45.80;23.67;;;76.90;1664.00;;;;;;5052659;28;20103;-60
2022/01/23 14:35:15;;;;;;;43.88;23.52;;;76.90;1664.00;;;;;;4995915;28;20488;-58
2022/01/23 14:37:43;;;;;;;49.13;24.95;;;76.90;1689.60;;;;;;5003757;28;20034;-60
2022/01/23 14:40:20;;;;;;;49.80;25.42;;;76.80;1664.00;;;;;;5002478;28;20058;-60
2022/01/23 14:43:08;;;;;;;48.83;25.63;;;76.80;1638.40;;;;;;4999944;28;20092;-58
2022/01/23 14:45:39;;;;;;;45.90;25.73;;;76.80;1664.00;;;;;;5001911;28;20027;-60
2022/01/23 14:48:07;;;;;;;42.03;22.85;;;76.90;1689.60;;;;;;4999392;28;20030;-63
2022/01/23 14:50:39;;;;;;;44.35;24.23;;;76.80;1664.00;;;;;;5003591;28;20038;-60
2022/01/23 14:53:08;;;;;;;40.08;22.00;;;76.80;1664.00;;;;;;5003049;28;20018;-57
2022/01/23 14:55:35;;;;;;;48.38;24.50;;;76.80;1664.00;;;;;;5001678;28;20026;-58
2022/01/23 14:58:02;;;;;;;44.55;23.92;;;76.80;1689.60;;;;;;5002930;28;20038;-59
2022/01/23 15:00:32;;;;;;;53.78;25.88;;;76.80;1638.40;;;;;;4984324;28;20042;-57
2022/01/23 15:03:02;;;;;;;65.63;30.63;;;52.00;1638.40;;;;;;5003570;28;20057;-62
2022/01/23 15:05:38;;;;;;;64.93;32.92;;;51.90;1638.40;;;;;;5008465;28;20048;-62
2022/01/23 15:08:08;;;;;;;96.80;45.25;;;51.90;1638.40;;;;;;5012921;28;20183;-60
2022/01/23 15:10:35;;;;;;;134.50;61.15;;;51.90;1612.80;;;;;;5047798;28;20120;-59
2022/01/23 15:13:01;;;;;;;165.05;66.15;;;51.80;1638.40;;;;;;5074647;28;20121;-60
2022/01/23 15:15:27;;;;;;;126.65;53.30;;;51.70;1612.80;;;;;;5074576;28;20471;-58
2022/01/23 15:17:53;;;;;;;112.18;50.85;;;51.70;1638.40;;;;;;5074412;28;20485;-58
2022/01/23 15:20:20;;;;;;;127.28;54.88;;;51.70;1689.60;;;;;;5075027;28;20028;-58
2022/01/23 15:22:46;;;;;;;120.95;53.90;;;51.80;1740.80;;;;;;5074637;28;20314;-58
2022/01/23 15:25:14;;;;;;;129.13;55.00;;;51.90;1817.60;;;;;;5074497;28;20107;-59
2022/01/23 15:27:40;;;;;;;125.88;54.20;;;52.00;1868.80;;;;;;5073962;28;20036;-60
2022/01/23 15:30:08;;;;;;;121.82;56.00;;;52.10;1766.40;;;;;;5074437;28;20177;-60
2022/01/23 15:32:34;;;;;;;126.03;58.80;;;52.10;1689.60;;;;;;5074061;28;20115;-60
2022/01/23 15:35:00;;;;;;;120.10;55.38;;;52.00;1689.60;;;;;;5074185;28;20105;-59
2022/01/23 15:37:26;;;;;;;104.68;50.42;;;52.00;1689.60;;;;;;5074193;28;20465;-58
2022/01/23 15:39:52;;;;;;;131.13;60.35;;;52.00;1689.60;;;;;;5073483;28;20021;-61
2022/01/23 15:42:18;;;;;;;139.07;66.60;;;51.90;1689.60;;;;;;5074083;28;20025;-58
2022/01/23 15:44:44;;;;;;;147.77;68.45;;;51.90;1689.60;;;;;;5074067;28;20020;-60
2022/01/23 15:47:10;;;;;;;120.57;55.88;;;51.90;1689.60;;;;;;5073813;28;20036;-58
2022/01/23 15:49:36;;;;;;;112.22;50.97;;;51.90;1664.00;;;;;;5073129;28;20021;-60
2022/01/23 15:52:03;;;;;;;104.13;51.22;;;51.90;1689.60;;;;;;5073620;28;20033;-59
2022/01/23 15:54:29;;;;;;;117.38;54.22;;;51.90;1664.00;;;;;;5072651;28;20032;-60
2022/01/23 15:56:55;;;;;;;116.68;58.15;;;51.80;1664.00;;;;;;5073861;28;20021;-60
2022/01/23 15:59:21;;;;;;;106.90;50.67;;;51.80;1689.60;;;;;;5073520;28;20382;-60
2022/01/23 16:01:49;;;;;;;82.47;42.75;;;51.70;1664.00;;;;;;5073533;28;20024;-59
2022/01/23 16:04:17;;;;;;;77.90;39.90;;;51.70;1664.00;;;;;;5073716;28;20021;-59